sensor_id;sensor_type;location;lat;lon;timestamp;pressure;altitude;pressure_sealevel;temperature;humidity
41254;BME280;26987;59.928;30.306;2024-02-23T00:01:38;100603.97;;;1.56;100.00
41254;BME280;26987;59.928;30.306;2024-02-23T00:04:06;100604.28;;;1.53;100.00
41254;BME280;26987;59.928;30.306;2024-02-23T00:06:34;100560.09;;;1.27;100.00
41254;BME280;26987;59.928;30.306;2024-02-23T00:09:02;100599.28;;;1.50;100.00
41254;BME280;26987;59.928;30.306;2024-02-23T00:11:31;100606.78;;;1.55;100.00
41254;BME280;26987;59.928;30.306;2024-02-23T00:13:59;100591.22;;;1.51;100.00
41254;BME280;26987;59.928;30.306;2024-02-23T00:16:29;100594.31;;;1.47;100.00
41254;BME280;26987;59.928;30.306;2024-02-23T00:18:57;100533.34;;;1.12;100.00
41254;BME280;26987;59.928;30.306;2024-02-23T00:21:24;100582.59;;;1.49;100.00
41254;BME280;26987;59.928;30.306;2024-02-23T00:23:55;100570.81;;;1.44;100.00
41254;BME280;26987;59.928;30.306;2024-02-23T00:26:23;100577.09;;;1.43;100.00
41254;BME280;26987;59.928;30.306;2024-02-23T00:28:51;100589.00;;;1.47;100.00
41254;BME280;26987;59.928;30.306;2024-02-23T00:31:19;100534.03;;;1.14;100.00
41254;BME280;26987;59.928;30.306;2024-02-23T00:33:48;100554.72;;;1.19;100.00
41254;BME280;26987;59.928;30.306;2024-02-23T00:36:16;100587.97;;;1.40;100.00
41254;BME280;26987;59.928;30.306;2024-02-23T00:38:44;100586.16;;;1.40;100.00
41254;BME280;26987;59.928;30.306;2024-02-23T00:41:12;100572.16;;;1.30;100.00
41254;BME280;26987;59.928;30.306;2024-02-23T00:43:41;100578.22;;;1.40;100.00
41254;BME280;26987;59.928;30.306;2024-02-23T00:46:09;100574.75;;;1.40;100.00
41254;BME280;26987;59.928;30.306;2024-02-23T00:48:37;100536.38;;;1.17;100.00
41254;BME280;26987;59.928;30.306;2024-02-23T00:51:06;100576.25;;;1.42;100.00
41254;BME280;26987;59.928;30.306;2024-02-23T00:53:34;100562.13;;;1.33;100.00
41254;BME280;26987;59.928;30.306;2024-02-23T00:56:02;100577.75;;;1.45;100.00
41254;BME280;26987;59.928;30.306;2024-02-23T00:58:30;100555.41;;;1.21;100.00
41254;BME280;26987;59.928;30.306;2024-02-23T01:00:59;100580.47;;;1.35;100.00
41254;BME280;26987;59.928;30.306;2024-02-23T01:03:27;100579.03;;;1.41;100.00
41254;BME280;26987;59.928;30.306;2024-02-23T01:05:55;100576.09;;;1.44;100.00
41254;BME280;26987;59.928;30.306;2024-02-23T01:08:24;100581.09;;;1.47;100.00
41254;BME280;26987;59.928;30.306;2024-02-23T01:10:52;100576.78;;;1.46;100.00
41254;BME280;26987;59.928;30.306;2024-02-23T01:13:20;100565.84;;;1.41;100.00
41254;BME280;26987;59.928;30.306;2024-02-23T01:15:48;100582.59;;;1.49;100.00
41254;BME280;26987;59.928;30.306;2024-02-23T01:18:16;100574.81;;;1.48;100.00
41254;BME280;26987;59.928;30.306;2024-02-23T01:20:44;100576.66;;;1.47;100.00
41254;BME280;26987;59.928;30.306;2024-02-23T01:23:11;100566.53;;;1.43;100.00
41254;BME280;26987;59.928;30.306;2024-02-23T01:25:41;100582.13;;;1.54;100.00
41254;BME280;26987;59.928;30.306;2024-02-23T01:28:09;100544.63;;;1.32;100.00
41254;BME280;26987;59.928;30.306;2024-02-23T01:30:37;100571.22;;;1.49;100.00
41254;BME280;26987;59.928;30.306;2024-02-23T01:33:05;100444.06;;;0.61;100.00
41254;BME280;26987;59.928;30.306;2024-02-23T01:35:33;100572.56;;;1.53;100.00
41254;BME280;26987;59.928;30.306;2024-02-23T01:38:03;100571.22;;;1.49;100.00
41254;BME280;26987;59.928;30.306;2024-02-23T01:40:31;100580.19;;;1.56;100.00
41254;BME280;26987;59.928;30.306;2024-02-23T01:43:04;100577.53;;;1.56;100.00
41254;BME280;26987;59.928;30.306;2024-02-23T01:45:33;100543.25;;;1.28;100.00
41254;BME280;26987;59.928;30.306;2024-02-23T01:48:01;100562.06;;;1.43;100.00
41254;BME280;26987;59.928;30.306;2024-02-23T01:50:30;100573.22;;;1.55;100.00
41254;BME280;26987;59.928;30.306;2024-02-23T01:53:00;100570.56;;;1.55;100.00
41254;BME280;26987;59.928;30.306;2024-02-23T01:55:28;100569.06;;;1.53;100.00
41254;BME280;26987;59.928;30.306;2024-02-23T01:57:57;100572.72;;;1.51;100.00
41254;BME280;26987;59.928;30.306;2024-02-23T02:00:28;100564.94;;;1.50;100.00
41254;BME280;26987;59.928;30.306;2024-02-23T02:02:57;100554.50;;;1.48;100.00
41254;BME280;26987;59.928;30.306;2024-02-23T02:05:26;100547.63;;;1.37;100.00
41254;BME280;26987;59.928;30.306;2024-02-23T02:07:55;100552.56;;;1.50;100.00
41254;BME280;26987;59.928;30.306;2024-02-23T02:10:25;100552.16;;;1.45;100.00
41254;BME280;26987;59.928;30.306;2024-02-23T02:12:53;100553.22;;;1.53;100.00
41254;BME280;26987;59.928;30.306;2024-02-23T02:15:21;100551.72;;;1.50;100.00
41254;BME280;26987;59.928;30.306;2024-02-23T02:17:50;100538.97;;;1.45;100.00
41254;BME280;26987;59.928;30.306;2024-02-23T02:20:24;100534.28;;;1.39;100.00
41254;BME280;26987;59.928;30.306;2024-02-23T02:22:52;100546.13;;;1.53;100.00
41254;BME280;26987;59.928;30.306;2024-02-23T02:25:20;100544.47;;;1.52;100.00
41254;BME280;26987;59.928;30.306;2024-02-23T02:27:48;100550.28;;;1.56;100.00
41254;BME280;26987;59.928;30.306;2024-02-23T02:30:16;100539.69;;;1.56;100.00
41254;BME280;26987;59.928;30.306;2024-02-23T02:32:44;100548.22;;;1.68;100.00
41254;BME280;26987;59.928;30.306;2024-02-23T02:35:13;100558.81;;;1.68;100.00
41254;BME280;26987;59.928;30.306;2024-02-23T02:37:41;100537.91;;;1.56;100.00
41254;BME280;26987;59.928;30.306;2024-02-23T02:40:10;100537.22;;;1.54;100.00
41254;BME280;26987;59.928;30.306;2024-02-23T02:42:38;100543.53;;;1.61;100.00
41254;BME280;26987;59.928;30.306;2024-02-23T02:45:06;100529.97;;;1.56;100.00
41254;BME280;26987;59.928;30.306;2024-02-23T02:47:34;100541.50;;;1.55;100.00
41254;BME280;26987;59.928;30.306;2024-02-23T02:50:04;100551.63;;;1.60;100.00
41254;BME280;26987;59.928;30.306;2024-02-23T02:52:34;100550.50;;;1.62;100.00
41254;BME280;26987;59.928;30.306;2024-02-23T02:55:02;100552.84;;;1.66;100.00
41254;BME280;26987;59.928;30.306;2024-02-23T02:57:30;100554.34;;;1.68;100.00
41254;BME280;26987;59.928;30.306;2024-02-23T02:59:58;100558.66;;;1.69;100.00
41254;BME280;26987;59.928;30.306;2024-02-23T03:02:26;100507.34;;;1.35;100.00
41254;BME280;26987;59.928;30.306;2024-02-23T03:04:54;100516.00;;;1.46;100.00
41254;BME280;26987;59.928;30.306;2024-02-23T03:07:22;100550.22;;;1.66;100.00
41254;BME280;26987;59.928;30.306;2024-02-23T03:09:51;100544.84;;;1.57;100.00
41254;BME280;26987;59.928;30.306;2024-02-23T03:12:20;100533.28;;;1.58;100.00
41254;BME280;26987;59.928;30.306;2024-02-23T03:14:48;100547.91;;;1.71;100.00
41254;BME280;26987;59.928;30.306;2024-02-23T03:17:16;100554.84;;;1.72;100.00
41254;BME280;26987;59.928;30.306;2024-02-23T03:19:44;100563.09;;;1.69;100.00
41254;BME280;26987;59.928;30.306;2024-02-23T03:22:12;100555.41;;;1.57;100.00
41254;BME280;26987;59.928;30.306;2024-02-23T03:24:40;100556.16;;;1.68;100.00
41254;BME280;26987;59.928;30.306;2024-02-23T03:27:09;100539.19;;;1.52;100.00
41254;BME280;26987;59.928;30.306;2024-02-23T03:29:38;100549.81;;;1.60;100.00
41254;BME280;26987;59.928;30.306;2024-02-23T03:32:07;100554.41;;;1.58;100.00
41254;BME280;26987;59.928;30.306;2024-02-23T03:34:35;100520.25;;;1.38;100.00
41254;BME280;26987;59.928;30.306;2024-02-23T03:37:03;100534.50;;;1.46;100.00
41254;BME280;26987;59.928;30.306;2024-02-23T03:39:31;100540.59;;;1.46;100.00
41254;BME280;26987;59.928;30.306;2024-02-23T03:42:00;100540.16;;;1.51;100.00
41254;BME280;26987;59.928;30.306;2024-02-23T03:44:29;100543.50;;;1.53;100.00
41254;BME280;26987;59.928;30.306;2024-02-23T03:46:58;100532.97;;;1.43;100.00
41254;BME280;26987;59.928;30.306;2024-02-23T03:49:26;100507.84;;;1.21;100.00
41254;BME280;26987;59.928;30.306;2024-02-23T03:51:54;100528.38;;;1.45;100.00
41254;BME280;26987;59.928;30.306;2024-02-23T03:54:21;100531.78;;;1.37;100.00
41254;BME280;26987;59.928;30.306;2024-02-23T03:56:49;100521.66;;;1.33;100.00
41254;BME280;26987;59.928;30.306;2024-02-23T03:59:17;100527.84;;;1.42;100.00
41254;BME280;26987;59.928;30.306;2024-02-23T04:01:46;100532.81;;;1.45;100.00
41254;BME280;26987;59.928;30.306;2024-02-23T04:04:14;100539.09;;;1.44;100.00
41254;BME280;26987;59.928;30.306;2024-02-23T04:06:42;100542.50;;;1.36;100.00
41254;BME280;26987;59.928;30.306;2024-02-23T04:09:10;100550.81;;;1.41;100.00
41254;BME280;26987;59.928;30.306;2024-02-23T04:11:39;100528.47;;;1.35;100.00
41254;BME280;26987;59.928;30.306;2024-02-23T04:14:06;100542.75;;;1.43;100.00
41254;BME280;26987;59.928;30.306;2024-02-23T04:16:34;100539.41;;;1.41;100.00
41254;BME280;26987;59.928;30.306;2024-02-23T04:19:04;100533.38;;;1.48;100.00
41254;BME280;26987;59.928;30.306;2024-02-23T04:21:32;100528.94;;;1.49;100.00
41254;BME280;26987;59.928;30.306;2024-02-23T04:24:00;100481.81;;;1.26;100.00
41254;BME280;26987;59.928;30.306;2024-02-23T04:26:28;100505.75;;;1.43;100.00
41254;BME280;26987;59.928;30.306;2024-02-23T04:28:56;100496.63;;;1.37;100.00
41254;BME280;26987;59.928;30.306;2024-02-23T04:31:24;100490.09;;;1.31;100.00
41254;BME280;26987;59.928;30.306;2024-02-23T04:33:51;100500.22;;;1.36;100.00
41254;BME280;26987;59.928;30.306;2024-02-23T04:36:21;100452.22;;;1.04;100.00
41254;BME280;26987;59.928;30.306;2024-02-23T04:38:49;100507.63;;;1.32;100.00
41254;BME280;26987;59.928;30.306;2024-02-23T04:41:19;100478.78;;;1.21;100.00
41254;BME280;26987;59.928;30.306;2024-02-23T04:43:48;100498.19;;;1.30;100.00
41254;BME280;26987;59.928;30.306;2024-02-23T04:46:17;100491.09;;;1.30;100.00
41254;BME280;26987;59.928;30.306;2024-02-23T04:48:44;100483.94;;;1.22;100.00
41254;BME280;26987;59.928;30.306;2024-02-23T04:51:12;100506.19;;;1.38;100.00
41254;BME280;26987;59.928;30.306;2024-02-23T04:53:42;100510.50;;;1.39;100.00
41254;BME280;26987;59.928;30.306;2024-02-23T04:56:10;100492.97;;;1.38;100.00
41254;BME280;26987;59.928;30.306;2024-02-23T04:58:37;100497.50;;;1.46;100.00
41254;BME280;26987;59.928;30.306;2024-02-23T05:01:07;100503.53;;;1.56;100.00
41254;BME280;26987;59.928;30.306;2024-02-23T05:03:36;100470.19;;;1.37;100.00
41254;BME280;26987;59.928;30.306;2024-02-23T05:06:04;100498.59;;;1.61;100.00
41254;BME280;26987;59.928;30.306;2024-02-23T05:08:32;100490.38;;;1.64;100.00
41254;BME280;26987;59.928;30.306;2024-02-23T05:11:02;100486.91;;;1.64;100.00
41254;BME280;26987;59.928;30.306;2024-02-23T05:13:29;100477.41;;;1.53;100.00
41254;BME280;26987;59.928;30.306;2024-02-23T05:15:57;100491.38;;;1.63;100.00
41254;BME280;26987;59.928;30.306;2024-02-23T05:18:25;100478.59;;;1.59;100.00
41254;BME280;26987;59.928;30.306;2024-02-23T05:20:53;100484.75;;;1.59;100.00
41254;BME280;26987;59.928;30.306;2024-02-23T05:23:21;100484.59;;;1.61;100.00
41254;BME280;26987;59.928;30.306;2024-02-23T05:25:49;100480.91;;;1.54;100.00
41254;BME280;26987;59.928;30.306;2024-02-23T05:28:18;100481.09;;;1.60;100.00
41254;BME280;26987;59.928;30.306;2024-02-23T05:30:46;100488.41;;;1.67;100.00
41254;BME280;26987;59.928;30.306;2024-02-23T05:33:14;100493.72;;;1.67;100.00
41254;BME280;26987;59.928;30.306;2024-02-23T05:35:42;100464.84;;;1.55;100.00
41254;BME280;26987;59.928;30.306;2024-02-23T05:38:11;100492.94;;;1.74;100.00
41254;BME280;26987;59.928;30.306;2024-02-23T05:40:39;100491.06;;;1.67;100.00
41254;BME280;26987;59.928;30.306;2024-02-23T05:43:07;100478.47;;;1.60;100.00
41254;BME280;26987;59.928;30.306;2024-02-23T05:45:36;100462.91;;;1.57;100.00
41254;BME280;26987;59.928;30.306;2024-02-23T05:48:05;100468.56;;;1.62;100.00
41254;BME280;26987;59.928;30.306;2024-02-23T05:50:33;100483.03;;;1.76;100.00
41254;BME280;26987;59.928;30.306;2024-02-23T05:53:00;100457.84;;;1.64;100.00
41254;BME280;26987;59.928;30.306;2024-02-23T05:55:30;100481.25;;;1.85;100.00
41254;BME280;26987;59.928;30.306;2024-02-23T05:57:59;100479.44;;;1.86;100.00
41254;BME280;26987;59.928;30.306;2024-02-23T06:00:26;100478.00;;;1.92;100.00
41254;BME280;26987;59.928;30.306;2024-02-23T06:02:56;100482.16;;;1.94;100.00
41254;BME280;26987;59.928;30.306;2024-02-23T06:05:24;100463.81;;;1.93;100.00
41254;BME280;26987;59.928;30.306;2024-02-23T06:07:51;100450.19;;;1.79;100.00
41254;BME280;26987;59.928;30.306;2024-02-23T06:10:19;100482.31;;;1.93;100.00
41254;BME280;26987;59.928;30.306;2024-02-23T06:12:47;100474.31;;;1.84;100.00
41254;BME280;26987;59.928;30.306;2024-02-23T06:15:15;100456.13;;;1.81;100.00
41254;BME280;26987;59.928;30.306;2024-02-23T06:17:43;100481.81;;;1.97;100.00
41254;BME280;26987;59.928;30.306;2024-02-23T06:20:13;100480.63;;;1.92;100.00
41254;BME280;26987;59.928;30.306;2024-02-23T06:22:41;100470.59;;;1.95;100.00
41254;BME280;26987;59.928;30.306;2024-02-23T06:25:09;100465.22;;;1.87;100.00
41254;BME280;26987;59.928;30.306;2024-02-23T06:27:38;100485.31;;;1.98;100.00
41254;BME280;26987;59.928;30.306;2024-02-23T06:30:08;100476.19;;;1.92;100.00
41254;BME280;26987;59.928;30.306;2024-02-23T06:32:37;100481.47;;;1.92;100.00
41254;BME280;26987;59.928;30.306;2024-02-23T06:35:05;100489.44;;;2.00;100.00
41254;BME280;26987;59.928;30.306;2024-02-23T06:37:35;100495.25;;;2.04;100.00
41254;BME280;26987;59.928;30.306;2024-02-23T06:40:04;100475.72;;;1.97;100.00
41254;BME280;26987;59.928;30.306;2024-02-23T06:42:33;100483.53;;;2.07;100.00
41254;BME280;26987;59.928;30.306;2024-02-23T06:45:01;100489.34;;;2.10;100.00
41254;BME280;26987;59.928;30.306;2024-02-23T06:47:29;100493.63;;;2.03;100.00
41254;BME280;26987;59.928;30.306;2024-02-23T06:49:57;100500.94;;;2.09;100.00
41254;BME280;26987;59.928;30.306;2024-02-23T06:52:25;100478.38;;;1.97;100.00
41254;BME280;26987;59.928;30.306;2024-02-23T06:54:55;100483.22;;;2.10;100.00
41254;BME280;26987;59.928;30.306;2024-02-23T06:57:22;100476.44;;;2.07;100.00
41254;BME280;26987;59.928;30.306;2024-02-23T06:59:52;100436.47;;;1.84;100.00
41254;BME280;26987;59.928;30.306;2024-02-23T07:02:20;100467.88;;;2.13;100.00
41254;BME280;26987;59.928;30.306;2024-02-23T07:04:48;100476.47;;;2.16;100.00
41254;BME280;26987;59.928;30.306;2024-02-23T07:07:16;100477.16;;;2.18;100.00
41254;BME280;26987;59.928;30.306;2024-02-23T07:09:44;100479.63;;;2.19;100.00
41254;BME280;26987;59.928;30.306;2024-02-23T07:12:13;100488.72;;;2.17;100.00
41254;BME280;26987;59.928;30.306;2024-02-23T07:14:41;100482.13;;;2.21;100.00
41254;BME280;26987;59.928;30.306;2024-02-23T07:17:09;100466.84;;;2.06;100.00
41254;BME280;26987;59.928;30.306;2024-02-23T07:19:37;100496.03;;;2.23;100.00
41254;BME280;26987;59.928;30.306;2024-02-23T07:22:05;100491.72;;;2.22;100.00
41254;BME280;26987;59.928;30.306;2024-02-23T07:24:33;100493.41;;;2.23;100.00
41254;BME280;26987;59.928;30.306;2024-02-23T07:27:01;100425.06;;;1.83;100.00
41254;BME280;26987;59.928;30.306;2024-02-23T07:29:30;100485.94;;;2.18;100.00
41254;BME280;26987;59.928;30.306;2024-02-23T07:31:58;100488.09;;;2.23;100.00
41254;BME280;26987;59.928;30.306;2024-02-23T07:34:26;100489.44;;;2.27;100.00
41254;BME280;26987;59.928;30.306;2024-02-23T07:36:54;100447.44;;;1.97;100.00
41254;BME280;26987;59.928;30.306;2024-02-23T07:39:22;100469.84;;;2.11;100.00
41254;BME280;26987;59.928;30.306;2024-02-23T07:41:50;100485.63;;;2.21;100.00
41254;BME280;26987;59.928;30.306;2024-02-23T07:44:18;100481.50;;;2.27;100.00
41254;BME280;26987;59.928;30.306;2024-02-23T07:46:47;100480.81;;;2.25;100.00
41254;BME280;26987;59.928;30.306;2024-02-23T07:49:15;100484.31;;;2.34;100.00
41254;BME280;26987;59.928;30.306;2024-02-23T07:51:43;100438.72;;;2.05;100.00
41254;BME280;26987;59.928;30.306;2024-02-23T07:54:11;100483.69;;;2.40;100.00
41254;BME280;26987;59.928;30.306;2024-02-23T07:56:39;100478.41;;;2.40;100.00
41254;BME280;26987;59.928;30.306;2024-02-23T07:59:07;100487.03;;;2.50;100.00
41254;BME280;26987;59.928;30.306;2024-02-23T08:01:35;100493.50;;;2.56;100.00
41254;BME280;26987;59.928;30.306;2024-02-23T08:04:04;100491.22;;;2.61;100.00
41254;BME280;26987;59.928;30.306;2024-02-23T08:06:32;100493.06;;;2.69;100.00
41254;BME280;26987;59.928;30.306;2024-02-23T08:09:00;100493.94;;;2.78;100.00
41254;BME280;26987;59.928;30.306;2024-02-23T08:11:28;100495.56;;;2.79;100.00
41254;BME280;26987;59.928;30.306;2024-02-23T08:13:56;100475.34;;;2.70;100.00
41254;BME280;26987;59.928;30.306;2024-02-23T08:16:24;100493.94;;;2.86;100.00
41254;BME280;26987;59.928;30.306;2024-02-23T08:18:52;100495.94;;;2.84;100.00
41254;BME280;26987;59.928;30.306;2024-02-23T08:21:22;100500.06;;;2.87;100.00
41254;BME280;26987;59.928;30.306;2024-02-23T08:23:50;100481.53;;;2.79;100.00
41254;BME280;26987;59.928;30.306;2024-02-23T08:26:18;100482.69;;;2.84;100.00
41254;BME280;26987;59.928;30.306;2024-02-23T08:28:46;100489.16;;;2.90;100.00
41254;BME280;26987;59.928;30.306;2024-02-23T08:31:14;100490.66;;;2.93;100.00
41254;BME280;26987;59.928;30.306;2024-02-23T08:33:43;100479.69;;;2.79;100.00
41254;BME280;26987;59.928;30.306;2024-02-23T08:36:10;100499.91;;;2.80;100.00
41254;BME280;26987;59.928;30.306;2024-02-23T08:38:40;100491.91;;;2.72;100.00
41254;BME280;26987;59.928;30.306;2024-02-23T08:41:08;100467.03;;;2.56;100.00
41254;BME280;26987;59.928;30.306;2024-02-23T08:43:36;100494.25;;;2.75;100.00
41254;BME280;26987;59.928;30.306;2024-02-23T08:46:04;100459.25;;;2.55;100.00
41254;BME280;26987;59.928;30.306;2024-02-23T08:48:32;100506.53;;;2.84;100.00
41254;BME280;26987;59.928;30.306;2024-02-23T08:51:00;100509.19;;;2.84;100.00
41254;BME280;26987;59.928;30.306;2024-02-23T08:53:28;100501.56;;;2.81;100.00
41254;BME280;26987;59.928;30.306;2024-02-23T08:55:57;100471.69;;;2.62;100.00
41254;BME280;26987;59.928;30.306;2024-02-23T08:58:25;100503.56;;;2.87;100.00
41254;BME280;26987;59.928;30.306;2024-02-23T09:00:53;100440.41;;;2.49;100.00
41254;BME280;26987;59.928;30.306;2024-02-23T09:03:21;100503.03;;;2.84;100.00
41254;BME280;26987;59.928;30.306;2024-02-23T09:05:49;100499.91;;;2.80;100.00
41254;BME280;26987;59.928;30.306;2024-02-23T09:08:17;100501.72;;;2.88;100.00
41254;BME280;26987;59.928;30.306;2024-02-23T09:10:45;100498.25;;;2.87;100.00
41254;BME280;26987;59.928;30.306;2024-02-23T09:13:14;100493.44;;;2.91;100.00
41254;BME280;26987;59.928;30.306;2024-02-23T09:15:43;100499.44;;;2.93;100.00
41254;BME280;26987;59.928;30.306;2024-02-23T09:18:11;100508.38;;;2.92;100.00
41254;BME280;26987;59.928;30.306;2024-02-23T09:20:38;100499.91;;;2.97;100.00
41254;BME280;26987;59.928;30.306;2024-02-23T09:23:06;100507.53;;;2.92;100.00
41254;BME280;26987;59.928;30.306;2024-02-23T09:25:34;100480.69;;;2.78;100.00
41254;BME280;26987;59.928;30.306;2024-02-23T09:28:02;100516.81;;;2.96;100.00
41254;BME280;26987;59.928;30.306;2024-02-23T09:30:32;100504.41;;;2.96;100.00
41254;BME280;26987;59.928;30.306;2024-02-23T09:32:59;100509.53;;;2.98;100.00
41254;BME280;26987;59.928;30.306;2024-02-23T09:35:27;100503.56;;;2.96;100.00
41254;BME280;26987;59.928;30.306;2024-02-23T09:37:55;100496.28;;;2.98;100.00
41254;BME280;26987;59.928;30.306;2024-02-23T09:40:23;100469.94;;;2.88;100.00
41254;BME280;26987;59.928;30.306;2024-02-23T09:42:55;100499.44;;;2.93;100.00
41254;BME280;26987;59.928;30.306;2024-02-23T09:45:24;100504.22;;;2.89;100.00
41254;BME280;26987;59.928;30.306;2024-02-23T09:47:56;100483.00;;;2.81;100.00
41254;BME280;26987;59.928;30.306;2024-02-23T09:50:25;100501.28;;;3.01;100.00
41254;BME280;26987;59.928;30.306;2024-02-23T09:52:53;100494.31;;;3.08;100.00
41254;BME280;26987;59.928;30.306;2024-02-23T09:55:23;100497.66;;;3.19;100.00
41254;BME280;26987;59.928;30.306;2024-02-23T09:57:53;100497.00;;;3.25;100.00
41254;BME280;26987;59.928;30.306;2024-02-23T10:00:23;100481.75;;;3.27;100.00
41254;BME280;26987;59.928;30.306;2024-02-23T10:02:54;100488.72;;;3.36;100.00
41254;BME280;26987;59.928;30.306;2024-02-23T10:05:23;100471.50;;;3.32;100.00
41254;BME280;26987;59.928;30.306;2024-02-23T10:07:57;100474.13;;;3.40;100.00
41254;BME280;26987;59.928;30.306;2024-02-23T10:10:29;100475.81;;;3.42;100.00
41254;BME280;26987;59.928;30.306;2024-02-23T10:12:58;100398.59;;;2.86;100.00
41254;BME280;26987;59.928;30.306;2024-02-23T10:15:26;100459.38;;;3.21;100.00
41254;BME280;26987;59.928;30.306;2024-02-23T10:17:58;100468.50;;;3.27;100.00
41254;BME280;26987;59.928;30.306;2024-02-23T10:20:26;100476.94;;;3.39;100.00
41254;BME280;26987;59.928;30.306;2024-02-23T10:22:54;100474.28;;;3.39;100.00
41254;BME280;26987;59.928;30.306;2024-02-23T10:25:22;100477.44;;;3.51;100.00
41254;BME280;26987;59.928;30.306;2024-02-23T10:27:50;100472.63;;;3.55;100.00
41254;BME280;26987;59.928;30.306;2024-02-23T10:30:18;100465.84;;;3.60;100.00
41254;BME280;26987;59.928;30.306;2024-02-23T10:32:46;100462.53;;;3.58;100.00
41254;BME280;26987;59.928;30.306;2024-02-23T10:35:16;100457.75;;;3.53;100.00
41254;BME280;26987;59.928;30.306;2024-02-23T10:37:44;100453.91;;;3.39;100.00
41254;BME280;26987;59.928;30.306;2024-02-23T10:40:17;100464.88;;;3.28;100.00
41254;BME280;26987;59.928;30.306;2024-02-23T10:42:46;100451.63;;;3.28;100.00
41254;BME280;26987;59.928;30.306;2024-02-23T10:45:18;100418.31;;;3.00;100.00
41254;BME280;26987;59.928;30.306;2024-02-23T10:47:47;100455.91;;;3.29;100.00
41254;BME280;26987;59.928;30.306;2024-02-23T10:50:17;100462.19;;;3.36;100.00
41254;BME280;26987;59.928;30.306;2024-02-23T10:52:49;100461.41;;;3.36;100.00
41254;BME280;26987;59.928;30.306;2024-02-23T10:55:17;100464.88;;;3.28;100.00
41254;BME280;26987;59.928;30.306;2024-02-23T10:57:48;100467.19;;;3.31;100.00
41254;BME280;26987;59.928;30.306;2024-02-23T11:00:21;100463.53;;;3.32;100.00
41254;BME280;26987;59.928;30.306;2024-02-23T11:02:53;100466.19;;;3.32;100.00
41254;BME280;26987;59.928;30.306;2024-02-23T11:05:24;100462.19;;;3.36;100.00
41254;BME280;26987;59.928;30.306;2024-02-23T11:07:56;100459.25;;;3.31;100.00
41254;BME280;26987;59.928;30.306;2024-02-23T11:10:24;100457.91;;;3.35;100.00
41254;BME280;26987;59.928;30.306;2024-02-23T11:12:58;100444.16;;;3.32;100.00
41254;BME280;26987;59.928;30.306;2024-02-23T11:15:27;100459.91;;;3.42;100.00
41254;BME280;26987;59.928;30.306;2024-02-23T11:17:56;100449.28;;;3.50;100.00
41254;BME280;26987;59.928;30.306;2024-02-23T11:20:40;100431.38;;;3.44;100.00
41254;BME280;26987;59.928;30.306;2024-02-23T11:23:13;100448.94;;;3.53;100.00
41254;BME280;26987;59.928;30.306;2024-02-23T11:25:41;100427.09;;;3.43;100.00
41254;BME280;26987;59.928;30.306;2024-02-23T11:28:10;100445.75;;;3.66;100.00
41254;BME280;26987;59.928;30.306;2024-02-23T11:30:50;100444.63;;;3.69;100.00
41254;BME280;26987;59.928;30.306;2024-02-23T11:33:25;100444.28;;;3.72;100.00
41254;BME280;26987;59.928;30.306;2024-02-23T11:36:04;100436.16;;;3.73;100.00
41254;BME280;26987;59.928;30.306;2024-02-23T11:38:33;100451.28;;;3.64;100.00
41254;BME280;26987;59.928;30.306;2024-02-23T11:41:02;100439.97;;;3.54;100.00
41254;BME280;26987;59.928;30.306;2024-02-23T11:43:32;100440.16;;;3.52;100.00
41254;BME280;26987;59.928;30.306;2024-02-23T11:46:02;100430.41;;;3.45;100.00
41254;BME280;26987;59.928;30.306;2024-02-23T11:48:31;100428.75;;;3.52;100.00
41254;BME280;26987;59.928;30.306;2024-02-23T11:51:00;100440.50;;;3.58;100.00
41254;BME280;26987;59.928;30.306;2024-02-23T11:53:28;100434.69;;;3.62;100.00
41254;BME280;26987;59.928;30.306;2024-02-23T11:55:57;100446.31;;;3.61;100.00
41254;BME280;26987;59.928;30.306;2024-02-23T11:58:25;100438.84;;;3.57;100.00
41254;BME280;26987;59.928;30.306;2024-02-23T12:00:53;100448.59;;;3.56;100.00
41254;BME280;26987;59.928;30.306;2024-02-23T12:03:21;100436.34;;;3.47;100.00
41254;BME280;26987;59.928;30.306;2024-02-23T12:05:51;100436.53;;;3.53;100.00
41254;BME280;26987;59.928;30.306;2024-02-23T12:08:21;100445.78;;;3.58;100.00
41254;BME280;26987;59.928;30.306;2024-02-23T12:10:49;100443.81;;;3.60;100.00
41254;BME280;26987;59.928;30.306;2024-02-23T12:13:17;100421.59;;;3.61;100.00
41254;BME280;26987;59.928;30.306;2024-02-23T12:15:45;100447.09;;;3.62;100.00
41254;BME280;26987;59.928;30.306;2024-02-23T12:18:13;100434.34;;;3.65;100.00
41254;BME280;26987;59.928;30.306;2024-02-23T12:20:41;100441.31;;;3.66;100.00
41254;BME280;26987;59.928;30.306;2024-02-23T12:23:09;100442.81;;;3.61;100.00
41254;BME280;26987;59.928;30.306;2024-02-23T12:25:39;100440.00;;;3.62;100.00
41254;BME280;26987;59.928;30.306;2024-02-23T12:28:07;100435.19;;;3.58;100.00
41254;BME280;26987;59.928;30.306;2024-02-23T12:30:35;100435.34;;;3.56;100.00
41254;BME280;26987;59.928;30.306;2024-02-23T12:33:03;100436.53;;;3.53;100.00
41254;BME280;26987;59.928;30.306;2024-02-23T12:35:32;100419.97;;;3.43;100.00
41254;BME280;26987;59.928;30.306;2024-02-23T12:38:01;100430.06;;;3.56;100.00
41254;BME280;26987;59.928;30.306;2024-02-23T12:40:29;100444.63;;;3.60;100.00
41254;BME280;26987;59.928;30.306;2024-02-23T12:42:58;100445.44;;;3.69;100.00
41254;BME280;26987;59.928;30.306;2024-02-23T12:45:26;100436.50;;;3.70;100.00
41254;BME280;26987;59.928;30.306;2024-02-23T12:47:54;100422.75;;;3.66;100.00